Date,TemperatureHighF,TemperatureAvgF,TemperatureLowF,DewpointHighF,DewpointAvgF,DewpointLowF,HumidityHigh,HumidityAvg,HumidityLow,PressureMaxIn,PressureMinIn,WindSpeedMaxMPH,WindSpeedAvgMPH,GustSpeedMaxMPH,PrecipitationSumIn
2013-2-1,4.5,-3.6,-14.6,-1.4,-13.7,-22.9,76,62,44,30.23,29.95,5,1,0,0.00
2013-2-2,17.6,7.7,0.3,5.1,-1.3,-6.3,80,67,46,30.10,29.86,3,1,0,0.00
2013-2-3,19.2,11.2,2.5,6.7,2.7,-3.9,80,69,48,30.00,29.86,7,1,0,0.00
2013-2-4,19.8,11.5,3.2,10.5,1.1,-4.9,84,63,44,29.98,29.65,4,1,0,0.00
2013-2-5,38.3,22.8,8.2,24.7,16.0,3.9,93,76,49,29.98,29.56,5,1,0,0.10
2013-2-6,27.7,17.5,5.7,19.5,12.2,1.3,86,79,70,30.03,29.84,4,1,0,0.00
2013-2-7,27.9,25.5,21.6,23.5,21.3,18.1,91,84,76,30.16,29.90,2,0,0,0.00
2013-2-8,31.3,24.0,18.9,20.5,15.2,11.6,82,70,48,30.30,30.11,4,1,0,0.06
2013-2-9,32.5,28.7,25.2,28.3,24.4,19.9,90,84,79,30.11,29.83,8,3,0,0.00
2013-2-10,33.6,30.8,28.2,32.8,29.0,24.6,98,93,84,29.84,29.14,4,1,0,0.00
2013-2-11,30.6,25.2,16.0,30.1,20.4,10.9,98,82,69,29.94,29.21,6,1,0,0.00
2013-2-12,40.3,24.9,12.9,25.2,17.6,8.5,86,74,54,29.95,29.69,5,1,0,0.63
2013-2-13,39.9,29.2,18.7,32.6,23.8,15.0,98,81,60,29.69,29.44,4,1,0,0.68
2013-2-14,34.9,26.8,13.1,31.9,20.3,3.5,98,78,47,30.10,29.46,3,0,0,0.28
2013-2-15,24.1,12.2,4.3,7.3,1.3,-3.0,76,62,47,30.23,30.10,5,1,0,0.02
2013-2-16,24.4,10.3,0.5,8.2,1.0,-5.8,78,67,47,30.17,29.98,3,1,0,0.01
2013-2-17,32.7,21.7,8.8,20.9,12.8,2.1,77,69,58,30.02,29.50,8,2,0,0.00
2013-2-18,34.2,24.0,8.2,30.2,17.2,1.1,86,75,64,29.70,29.39,6,1,0,0.01
2013-2-19,14.0,5.5,-2.4,0.7,-6.2,-11.5,70,58,44,30.26,29.69,9,2,0,0.00
2013-2-20,22.1,7.2,-7.2,3.8,-4.4,-14.3,74,59,44,30.37,30.27,2,0,0,0.00
2013-2-21,27.1,16.8,6.1,10.7,5.1,-1.3,74,60,45,30.35,30.00,2,0,0,0.00
2013-2-22,32.9,24.5,19.8,22.7,18.6,10.5,88,79,61,29.98,29.73,2,0,0,0.01
2013-2-23,38.3,24.8,19.9,32.6,20.3,15.9,98,83,66,29.85,29.73,4,0,0,0.02
2013-2-24,38.8,23.5,9.1,24.0,15.9,5.3,89,74,52,30.00,29.85,3,0,0,0.09
2013-2-25,41.2,29.8,19.6,25.8,21.4,15.8,88,72,50,30.00,29.91,3,0,0,0.00
2013-2-26,40.3,29.2,15.8,28.3,22.4,11.8,89,76,61,29.95,29.76,2,0,0,0.00
2013-2-27,42.6,32.7,26.4,26.9,24.4,21.1,81,72,52,29.93,29.74,4,0,0,0.00
2013-2-28,31.5,28.5,23.9,22.2,19.9,14.6,82,70,64,30.14,29.92,2,0,0,0.00